EJA246 KBBG-KASE
Flight info
| Callsign | EJA246 |
|---|---|
| Flight time | 1h 57m |
| Altitude | 30000 |
| Route | BVO LAA KANON HAREI DBL |
| Aircraft | E35L/M-SDFGIRWXY/SB1 |
Departure
| Time | 2026-05-04 17:06 |
|---|---|
| Airport | Branson Airport (KBBG) |
Arrival
| Time | 2026-05-04 19:04 |
|---|---|
| Airport | Aspen-Pitkin County Airport (Sardy Field) (KASE) |
| Time | Latitude | Longitude | Altitude | Speed | Heading |
|---|---|---|---|---|---|
| 2026-05-04 16:47 | 36.53623 | -93.19815 | 1304 ft | 0 kts | 190° |
| 2026-05-04 17:00 | 36.53592 | -93.19822 | 1304 ft | 5 kts | 196° |
| 2026-05-04 17:00 | 36.53675 | -93.19964 | 1304 ft | 9 kts | 341° |
| 2026-05-04 17:01 | 36.53726 | -93.20046 | 1304 ft | 14 kts | 246° |
| 2026-05-04 17:01 | 36.53636 | -93.20247 | 1304 ft | 8 kts | 296° |
| 2026-05-04 17:02 | 36.53751 | -93.20360 | 1304 ft | 12 kts | 325° |
| 2026-05-04 17:02 | 36.53911 | -93.20499 | 1304 ft | 12 kts | 324° |
| 2026-05-04 17:03 | 36.53983 | -93.20562 | 1304 ft | 9 kts | 324° |
| 2026-05-04 17:03 | 36.54034 | -93.20609 | 1304 ft | 5 kts | 322° |
| 2026-05-04 17:03 | 36.54049 | -93.20639 | 1304 ft | 0 kts | 282° |
| 2026-05-04 17:04 | 36.54042 | -93.20674 | 1304 ft | 8 kts | 239° |
| 2026-05-04 17:05 | 36.53991 | -93.20732 | 1304 ft | 0 kts | 146° |
| 2026-05-04 17:05 | 36.53703 | -93.20483 | 1304 ft | 97 kts | 146° |
| 2026-05-04 17:06 | 36.51971 | -93.18927 | 2020 ft | 181 kts | 148° |
| 2026-05-04 17:06 | 36.50857 | -93.18030 | 2806 ft | 195 kts | 167° |
| 2026-05-04 17:07 | 36.48678 | -93.18391 | 5148 ft | 172 kts | 204° |
| 2026-05-04 17:07 | 36.47902 | -93.18729 | 5657 ft | 185 kts | 203° |
| 2026-05-04 17:07 | 36.46257 | -93.19437 | 6793 ft | 194 kts | 203° |
| 2026-05-04 17:07 | 36.45021 | -93.20071 | 7610 ft | 193 kts | 219° |
| 2026-05-04 17:08 | 36.44260 | -93.21439 | 8251 ft | 204 kts | 251° |
| 2026-05-04 17:08 | 36.44095 | -93.25084 | 9769 ft | 227 kts | 277° |
| 2026-05-04 17:08 | 36.44336 | -93.27032 | 10625 ft | 234 kts | 279° |
| 2026-05-04 17:09 | 36.44622 | -93.29000 | 11517 ft | 238 kts | 280° |
| 2026-05-04 17:09 | 36.44928 | -93.31015 | 12445 ft | 240 kts | 280° |
| 2026-05-04 17:09 | 36.45234 | -93.33009 | 13361 ft | 241 kts | 281° |
| 2026-05-04 17:10 | 36.45902 | -93.37337 | 14213 ft | 287 kts | 281° |
| 2026-05-04 17:10 | 36.47145 | -93.45446 | 16206 ft | 324 kts | 281° |
| 2026-05-04 17:11 | 36.47570 | -93.48229 | 17125 ft | 327 kts | 281° |
| 2026-05-04 17:11 | 36.47993 | -93.50998 | 17990 ft | 330 kts | 281° |
| 2026-05-04 17:11 | 36.48846 | -93.56607 | 19734 ft | 333 kts | 281° |
| 2026-05-04 17:12 | 36.49276 | -93.59441 | 20580 ft | 336 kts | 281° |
| 2026-05-04 17:12 | 36.50134 | -93.65103 | 22221 ft | 339 kts | 281° |
| 2026-05-04 17:13 | 36.51459 | -93.73889 | 24630 ft | 346 kts | 281° |
| 2026-05-04 17:14 | 36.52780 | -93.82693 | 27092 ft | 345 kts | 281° |
| 2026-05-04 17:14 | 36.53212 | -93.85584 | 27998 ft | 342 kts | 282° |
| 2026-05-04 17:14 | 36.54067 | -93.91314 | 29697 ft | 338 kts | 282° |
| 2026-05-04 17:15 | 36.54505 | -93.94256 | 29854 ft | 355 kts | 282° |
| 2026-05-04 17:15 | 36.55440 | -94.00555 | 29869 ft | 385 kts | 282° |
| 2026-05-04 17:16 | 36.56444 | -94.07354 | 29864 ft | 409 kts | 282° |
| 2026-05-04 17:16 | 36.57929 | -94.17470 | 29846 ft | 362 kts | 282° |
| 2026-05-04 17:17 | 36.58365 | -94.20451 | 29842 ft | 338 kts | 282° |
| 2026-05-04 17:17 | 36.59652 | -94.29258 | 29851 ft | 366 kts | 282° |
| 2026-05-04 17:18 | 36.60112 | -94.32423 | 29853 ft | 374 kts | 282° |
| 2026-05-04 17:19 | 36.61980 | -94.45351 | 29834 ft | 381 kts | 282° |
| 2026-05-04 17:20 | 36.63813 | -94.58128 | 29831 ft | 371 kts | 282° |
| 2026-05-04 17:20 | 36.65155 | -94.67543 | 29833 ft | 368 kts | 282° |
| 2026-05-04 17:21 | 36.66924 | -94.80042 | 29829 ft | 365 kts | 282° |
| 2026-05-04 17:22 | 36.67801 | -94.86277 | 29813 ft | 365 kts | 282° |
| 2026-05-04 17:23 | 36.69532 | -94.98657 | 29817 ft | 363 kts | 282° |
| 2026-05-04 17:24 | 36.70819 | -95.07921 | 29811 ft | 362 kts | 282° |
| 2026-05-04 17:25 | 36.72513 | -95.20196 | 29800 ft | 360 kts | 282° |
| 2026-05-04 17:26 | 36.74205 | -95.32568 | 29799 ft | 359 kts | 282° |
| 2026-05-04 17:27 | 36.76289 | -95.47935 | 29791 ft | 358 kts | 282° |
| 2026-05-04 17:28 | 36.77946 | -95.60257 | 29785 ft | 361 kts | 282° |
| 2026-05-04 17:29 | 36.80437 | -95.78990 | 29794 ft | 365 kts | 282° |
| 2026-05-04 17:31 | 36.82496 | -95.94644 | 29804 ft | 367 kts | 281° |
| 2026-05-04 17:32 | 36.85378 | -96.10085 | 29798 ft | 365 kts | 287° |
| 2026-05-04 17:33 | 36.88216 | -96.22138 | 29779 ft | 358 kts | 287° |
| 2026-05-04 17:34 | 36.91007 | -96.34066 | 29776 ft | 355 kts | 288° |
| 2026-05-04 17:35 | 36.94451 | -96.48872 | 29770 ft | 353 kts | 287° |
| 2026-05-04 17:36 | 36.95821 | -96.54791 | 29769 ft | 352 kts | 288° |
| 2026-05-04 17:36 | 36.97177 | -96.60655 | 29772 ft | 352 kts | 288° |
| 2026-05-04 17:37 | 36.98530 | -96.66528 | 29781 ft | 351 kts | 287° |
| 2026-05-04 17:37 | 36.99890 | -96.72440 | 29763 ft | 351 kts | 287° |
| 2026-05-04 17:38 | 37.01232 | -96.78299 | 29764 ft | 352 kts | 287° |
| 2026-05-04 17:38 | 37.02570 | -96.84146 | 29770 ft | 352 kts | 287° |
| 2026-05-04 17:39 | 37.04584 | -96.92979 | 29771 ft | 351 kts | 287° |
| 2026-05-04 17:39 | 37.05919 | -96.98852 | 29747 ft | 352 kts | 287° |
| 2026-05-04 17:40 | 37.07260 | -97.04766 | 29760 ft | 351 kts | 287° |
| 2026-05-04 17:40 | 37.08593 | -97.10658 | 29755 ft | 351 kts | 287° |
| 2026-05-04 17:41 | 37.09925 | -97.16567 | 29761 ft | 365 kts | 287° |
| 2026-05-04 17:41 | 37.10635 | -97.19718 | 29755 ft | 378 kts | 287° |
| 2026-05-04 17:41 | 37.11360 | -97.22946 | 29758 ft | 389 kts | 287° |
| 2026-05-04 17:42 | 37.12838 | -97.29532 | 29755 ft | 394 kts | 287° |
| 2026-05-04 17:42 | 37.14317 | -97.36147 | 29752 ft | 392 kts | 287° |
| 2026-05-04 17:43 | 37.15786 | -97.42731 | 29740 ft | 391 kts | 287° |
| 2026-05-04 17:43 | 37.17242 | -97.49274 | 29750 ft | 390 kts | 287° |
| 2026-05-04 17:44 | 37.18685 | -97.55782 | 29747 ft | 389 kts | 287° |
| 2026-05-04 17:44 | 37.20126 | -97.62299 | 29751 ft | 389 kts | 287° |
| 2026-05-04 17:45 | 37.21574 | -97.68870 | 29748 ft | 392 kts | 286° |
| 2026-05-04 17:45 | 37.23028 | -97.75475 | 29747 ft | 394 kts | 286° |
| 2026-05-04 17:46 | 37.24474 | -97.82072 | 29754 ft | 394 kts | 286° |
| 2026-05-04 17:46 | 37.25925 | -97.88709 | 29764 ft | 395 kts | 286° |
| 2026-05-04 17:47 | 37.27367 | -97.95322 | 29759 ft | 395 kts | 286° |
| 2026-05-04 17:47 | 37.28805 | -98.01945 | 29775 ft | 394 kts | 286° |
| 2026-05-04 17:48 | 37.30242 | -98.08574 | 29758 ft | 394 kts | 286° |
| 2026-05-04 17:48 | 37.31678 | -98.15222 | 29741 ft | 394 kts | 286° |
| 2026-05-04 17:49 | 37.33109 | -98.21866 | 29758 ft | 394 kts | 286° |
| 2026-05-04 17:49 | 37.34540 | -98.28529 | 29746 ft | 394 kts | 286° |
| 2026-05-04 17:50 | 37.35962 | -98.35171 | 29741 ft | 393 kts | 286° |
| 2026-05-04 17:50 | 37.37386 | -98.41837 | 29755 ft | 393 kts | 285° |
| 2026-05-04 17:51 | 37.38798 | -98.48473 | 29745 ft | 392 kts | 285° |
| 2026-05-04 17:51 | 37.40199 | -98.55077 | 29749 ft | 392 kts | 286° |
| 2026-05-04 17:52 | 37.41593 | -98.61665 | 29752 ft | 391 kts | 285° |
| 2026-05-04 17:52 | 37.42984 | -98.68262 | 29759 ft | 391 kts | 285° |
| 2026-05-04 17:53 | 37.44379 | -98.74897 | 29771 ft | 391 kts | 285° |
| 2026-05-04 17:53 | 37.45768 | -98.81519 | 29766 ft | 392 kts | 285° |
| 2026-05-04 17:54 | 37.47158 | -98.88168 | 29751 ft | 391 kts | 285° |
| 2026-05-04 17:54 | 37.48537 | -98.94787 | 29771 ft | 391 kts | 285° |
| 2026-05-04 17:55 | 37.49919 | -99.01437 | 29752 ft | 391 kts | 285° |
| 2026-05-04 17:55 | 37.51291 | -99.08064 | 29764 ft | 391 kts | 285° |
| 2026-05-04 17:56 | 37.52670 | -99.14741 | 29764 ft | 391 kts | 285° |
| 2026-05-04 17:56 | 37.54030 | -99.21353 | 29768 ft | 390 kts | 285° |
| 2026-05-04 17:57 | 37.55394 | -99.27998 | 29757 ft | 390 kts | 285° |
| 2026-05-04 17:57 | 37.56750 | -99.34629 | 29764 ft | 390 kts | 285° |
| 2026-05-04 17:58 | 37.58094 | -99.41215 | 29768 ft | 389 kts | 285° |
| 2026-05-04 17:58 | 37.59435 | -99.47813 | 29765 ft | 389 kts | 285° |
| 2026-05-04 17:59 | 37.60778 | -99.54437 | 29774 ft | 389 kts | 285° |
| 2026-05-04 18:00 | 37.62777 | -99.64336 | 29768 ft | 388 kts | 285° |
| 2026-05-04 18:00 | 37.64119 | -99.71015 | 29785 ft | 388 kts | 284° |
| 2026-05-04 18:01 | 37.65448 | -99.77644 | 29783 ft | 389 kts | 285° |
| 2026-05-04 18:01 | 37.66775 | -99.84286 | 29783 ft | 389 kts | 285° |
| 2026-05-04 18:02 | 37.68755 | -99.94230 | 29777 ft | 389 kts | 284° |
| 2026-05-04 18:02 | 37.70070 | -100.00862 | 29777 ft | 389 kts | 285° |
| 2026-05-04 18:03 | 37.71389 | -100.07536 | 29779 ft | 389 kts | 284° |
| 2026-05-04 18:03 | 37.72688 | -100.14133 | 29779 ft | 388 kts | 285° |
| 2026-05-04 18:04 | 37.73990 | -100.20760 | 29779 ft | 388 kts | 284° |
| 2026-05-04 18:05 | 37.75928 | -100.30671 | 29783 ft | 387 kts | 284° |
| 2026-05-04 18:05 | 37.77210 | -100.37252 | 29787 ft | 386 kts | 285° |
| 2026-05-04 18:06 | 37.79111 | -100.47051 | 29788 ft | 385 kts | 284° |
| 2026-05-04 18:06 | 37.80384 | -100.53637 | 29787 ft | 385 kts | 284° |
| 2026-05-04 18:07 | 37.81641 | -100.60161 | 29781 ft | 384 kts | 284° |
| 2026-05-04 18:07 | 37.82909 | -100.66768 | 29788 ft | 384 kts | 284° |
| 2026-05-04 18:08 | 37.84179 | -100.73402 | 29792 ft | 384 kts | 284° |
| 2026-05-04 18:08 | 37.85429 | -100.79956 | 29785 ft | 384 kts | 284° |
| 2026-05-04 18:09 | 37.87920 | -100.93075 | 29800 ft | 383 kts | 284° |
| 2026-05-04 18:10 | 37.89166 | -100.99673 | 29798 ft | 383 kts | 283° |
| 2026-05-04 18:10 | 37.90398 | -101.06214 | 29809 ft | 382 kts | 283° |
| 2026-05-04 18:11 | 37.91627 | -101.12768 | 29814 ft | 382 kts | 284° |
| 2026-05-04 18:11 | 37.92854 | -101.19327 | 29815 ft | 382 kts | 284° |
| 2026-05-04 18:12 | 37.94067 | -101.25829 | 29816 ft | 382 kts | 284° |
| 2026-05-04 18:12 | 37.95287 | -101.32400 | 29820 ft | 382 kts | 284° |
| 2026-05-04 18:13 | 37.96502 | -101.38956 | 29817 ft | 382 kts | 283° |
| 2026-05-04 18:14 | 37.98323 | -101.48828 | 29823 ft | 381 kts | 283° |
| 2026-05-04 18:14 | 37.99527 | -101.55386 | 29826 ft | 381 kts | 283° |
| 2026-05-04 18:15 | 38.01947 | -101.68631 | 29829 ft | 382 kts | 283° |
| 2026-05-04 18:16 | 38.03140 | -101.75189 | 29834 ft | 383 kts | 283° |
| 2026-05-04 18:16 | 38.04339 | -101.81808 | 29843 ft | 384 kts | 282° |
| 2026-05-04 18:17 | 38.06134 | -101.91760 | 29846 ft | 385 kts | 283° |
| 2026-05-04 18:18 | 38.07904 | -102.01625 | 29841 ft | 384 kts | 282° |
| 2026-05-04 18:18 | 38.09094 | -102.08280 | 29848 ft | 384 kts | 282° |
| 2026-05-04 18:19 | 38.10858 | -102.18193 | 29852 ft | 384 kts | 282° |
| 2026-05-04 18:19 | 38.12044 | -102.24892 | 29866 ft | 384 kts | 282° |
| 2026-05-04 18:20 | 38.13216 | -102.31529 | 29859 ft | 384 kts | 282° |
| 2026-05-04 18:20 | 38.14375 | -102.38119 | 29859 ft | 383 kts | 282° |
| 2026-05-04 18:21 | 38.15531 | -102.44710 | 29865 ft | 384 kts | 282° |
| 2026-05-04 18:21 | 38.16685 | -102.51320 | 29862 ft | 383 kts | 282° |
| 2026-05-04 18:22 | 38.17838 | -102.57939 | 29863 ft | 383 kts | 282° |
| 2026-05-04 18:22 | 38.18980 | -102.64527 | 29870 ft | 382 kts | 282° |
| 2026-05-04 18:23 | 38.19866 | -102.71321 | 29880 ft | 382 kts | 276° |
| 2026-05-04 18:23 | 38.20398 | -102.78102 | 29890 ft | 382 kts | 276° |
| 2026-05-04 18:24 | 38.20899 | -102.84894 | 29892 ft | 383 kts | 276° |
| 2026-05-04 18:24 | 38.21387 | -102.91609 | 29902 ft | 383 kts | 276° |
| 2026-05-04 18:25 | 38.21875 | -102.98366 | 29911 ft | 383 kts | 276° |
| 2026-05-04 18:25 | 38.22358 | -103.05114 | 29916 ft | 383 kts | 276° |
| 2026-05-04 18:26 | 38.22836 | -103.11860 | 29920 ft | 383 kts | 276° |
| 2026-05-04 18:26 | 38.23307 | -103.18552 | 29916 ft | 382 kts | 276° |
| 2026-05-04 18:27 | 38.23779 | -103.25310 | 29917 ft | 382 kts | 276° |
| 2026-05-04 18:27 | 38.24244 | -103.32040 | 29917 ft | 382 kts | 276° |
| 2026-05-04 18:28 | 38.24705 | -103.38731 | 29917 ft | 381 kts | 276° |
| 2026-05-04 18:28 | 38.25161 | -103.45450 | 29922 ft | 381 kts | 276° |
| 2026-05-04 18:29 | 38.25614 | -103.52161 | 29927 ft | 381 kts | 276° |
| 2026-05-04 18:29 | 38.26062 | -103.58845 | 29924 ft | 380 kts | 276° |
| 2026-05-04 18:30 | 38.26729 | -103.68927 | 29942 ft | 379 kts | 275° |
| 2026-05-04 18:31 | 38.27167 | -103.75627 | 29934 ft | 380 kts | 275° |
| 2026-05-04 18:31 | 38.27601 | -103.82312 | 29950 ft | 380 kts | 275° |
| 2026-05-04 18:32 | 38.28034 | -103.89051 | 29956 ft | 380 kts | 275° |
| 2026-05-04 18:32 | 38.28463 | -103.95774 | 29955 ft | 380 kts | 275° |
| 2026-05-04 18:33 | 38.28883 | -104.02431 | 29958 ft | 380 kts | 275° |
| 2026-05-04 18:33 | 38.29302 | -104.09123 | 29953 ft | 380 kts | 275° |
| 2026-05-04 18:34 | 38.29718 | -104.15827 | 29960 ft | 379 kts | 275° |
| 2026-05-04 18:34 | 38.30128 | -104.22506 | 29955 ft | 379 kts | 275° |
| 2026-05-04 18:35 | 38.30538 | -104.29249 | 29950 ft | 379 kts | 275° |
| 2026-05-04 18:35 | 38.30942 | -104.35953 | 29939 ft | 379 kts | 275° |
| 2026-05-04 18:36 | 38.31343 | -104.42676 | 29935 ft | 379 kts | 275° |
| 2026-05-04 18:36 | 38.31741 | -104.49386 | 29943 ft | 379 kts | 275° |
| 2026-05-04 18:37 | 38.32130 | -104.56050 | 29939 ft | 379 kts | 275° |
| 2026-05-04 18:37 | 38.32522 | -104.62801 | 29954 ft | 378 kts | 275° |
| 2026-05-04 18:38 | 38.32906 | -104.69500 | 29998 ft | 378 kts | 275° |
| 2026-05-04 18:38 | 38.33289 | -104.76245 | 30037 ft | 378 kts | 275° |
| 2026-05-04 18:39 | 38.33666 | -104.82922 | 30048 ft | 379 kts | 274° |
| 2026-05-04 18:39 | 38.34039 | -104.89645 | 30087 ft | 379 kts | 274° |
| 2026-05-04 18:40 | 38.34406 | -104.96301 | 30089 ft | 379 kts | 274° |
| 2026-05-04 18:40 | 38.34769 | -105.02964 | 30112 ft | 379 kts | 275° |
| 2026-05-04 18:41 | 38.35133 | -105.09695 | 30119 ft | 379 kts | 274° |
| 2026-05-04 18:41 | 38.35488 | -105.16359 | 30145 ft | 379 kts | 275° |
| 2026-05-04 18:42 | 38.35839 | -105.23004 | 30140 ft | 379 kts | 274° |
| 2026-05-04 18:42 | 38.36189 | -105.29710 | 30143 ft | 379 kts | 275° |
| 2026-05-04 18:43 | 38.36536 | -105.36436 | 30153 ft | 378 kts | 274° |
| 2026-05-04 18:43 | 38.36879 | -105.43133 | 30151 ft | 378 kts | 274° |
| 2026-05-04 18:44 | 38.37215 | -105.49792 | 30145 ft | 378 kts | 275° |
| 2026-05-04 18:44 | 38.37549 | -105.56485 | 30146 ft | 377 kts | 275° |
| 2026-05-04 18:45 | 38.37878 | -105.63155 | 30139 ft | 376 kts | 274° |
| 2026-05-04 18:45 | 38.38205 | -105.69859 | 30150 ft | 376 kts | 274° |
| 2026-05-04 18:46 | 38.38526 | -105.76506 | 30155 ft | 377 kts | 274° |
| 2026-05-04 18:46 | 38.38843 | -105.83170 | 30135 ft | 377 kts | 274° |
| 2026-05-04 18:47 | 38.39159 | -105.89868 | 30152 ft | 377 kts | 274° |
| 2026-05-04 18:47 | 38.40184 | -105.96436 | 30137 ft | 380 kts | 289° |
| 2026-05-04 18:48 | 38.42945 | -106.02213 | 30133 ft | 389 kts | 304° |
| 2026-05-04 18:48 | 38.47243 | -106.06613 | 30130 ft | 408 kts | 322° |
| 2026-05-04 18:49 | 38.52266 | -106.10089 | 30159 ft | 404 kts | 320° |
| 2026-05-04 18:49 | 38.56992 | -106.14022 | 30158 ft | 403 kts | 318° |
| 2026-05-04 18:50 | 38.61665 | -106.18012 | 30166 ft | 403 kts | 319° |
| 2026-05-04 18:50 | 38.66315 | -106.21997 | 30184 ft | 404 kts | 319° |
| 2026-05-04 18:51 | 38.71017 | -106.26034 | 30169 ft | 405 kts | 319° |
| 2026-05-04 18:51 | 38.75677 | -106.30040 | 30181 ft | 403 kts | 319° |
| 2026-05-04 18:51 | 38.77995 | -106.32037 | 30049 ft | 405 kts | 319° |
| 2026-05-04 18:52 | 38.80342 | -106.34061 | 29534 ft | 411 kts | 320° |
| 2026-05-04 18:52 | 38.82726 | -106.36115 | 29022 ft | 411 kts | 319° |
| 2026-05-04 18:52 | 38.85073 | -106.38141 | 28715 ft | 404 kts | 320° |
| 2026-05-04 18:52 | 38.87364 | -106.40115 | 28791 ft | 391 kts | 319° |
| 2026-05-04 18:53 | 38.89629 | -106.42078 | 28337 ft | 393 kts | 319° |
| 2026-05-04 18:53 | 38.91884 | -106.44031 | 27824 ft | 394 kts | 320° |
| 2026-05-04 18:53 | 38.94153 | -106.45996 | 27326 ft | 391 kts | 320° |
| 2026-05-04 18:53 | 38.96381 | -106.47926 | 26806 ft | 377 kts | 320° |
| 2026-05-04 18:54 | 38.98507 | -106.49768 | 26278 ft | 367 kts | 320° |
| 2026-05-04 18:54 | 39.00610 | -106.51595 | 25631 ft | 364 kts | 320° |
| 2026-05-04 18:54 | 39.02651 | -106.53368 | 25031 ft | 371 kts | 321° |
| 2026-05-04 18:54 | 39.04803 | -106.55238 | 24392 ft | 376 kts | 321° |
| 2026-05-04 18:55 | 39.06960 | -106.57114 | 23746 ft | 380 kts | 321° |
| 2026-05-04 18:55 | 39.11388 | -106.60919 | 22465 ft | 383 kts | 319° |
| 2026-05-04 18:55 | 39.13602 | -106.62889 | 21817 ft | 387 kts | 322° |
| 2026-05-04 18:56 | 39.15858 | -106.64861 | 21171 ft | 388 kts | 322° |
| 2026-05-04 18:56 | 39.18097 | -106.66814 | 20555 ft | 388 kts | 322° |
| 2026-05-04 18:56 | 39.20336 | -106.68769 | 19971 ft | 380 kts | 322° |
| 2026-05-04 18:56 | 39.22532 | -106.70687 | 19382 ft | 372 kts | 322° |
| 2026-05-04 18:57 | 39.24639 | -106.72530 | 18810 ft | 363 kts | 323° |
| 2026-05-04 18:57 | 39.26706 | -106.74338 | 18184 ft | 356 kts | 323° |
| 2026-05-04 18:57 | 39.28763 | -106.76139 | 17508 ft | 350 kts | 323° |
| 2026-05-04 18:57 | 39.30752 | -106.77882 | 16839 ft | 346 kts | 323° |
| 2026-05-04 18:58 | 39.32751 | -106.79634 | 16174 ft | 342 kts | 323° |
| 2026-05-04 18:58 | 39.34707 | -106.81351 | 15513 ft | 339 kts | 323° |
| 2026-05-04 18:58 | 39.36621 | -106.83085 | 14852 ft | 334 kts | 317° |
| 2026-05-04 18:58 | 39.38042 | -106.85387 | 14207 ft | 325 kts | 297° |
| 2026-05-04 18:59 | 39.39138 | -106.87878 | 13572 ft | 322 kts | 300° |
| 2026-05-04 18:59 | 39.40349 | -106.90310 | 12993 ft | 318 kts | 301° |
| 2026-05-04 18:59 | 39.41220 | -106.92834 | 12486 ft | 308 kts | 280° |
| 2026-05-04 18:59 | 39.41143 | -106.95454 | 12369 ft | 271 kts | 251° |
| 2026-05-04 19:00 | 39.40192 | -106.97333 | 12384 ft | 240 kts | 220° |
| 2026-05-04 19:00 | 39.38732 | -106.98079 | 12426 ft | 227 kts | 186° |
| 2026-05-04 19:00 | 39.37212 | -106.97562 | 12388 ft | 229 kts | 149° |
| 2026-05-04 19:00 | 39.36112 | -106.96101 | 12399 ft | 225 kts | 132° |
| 2026-05-04 19:01 | 39.35117 | -106.94559 | 12175 ft | 231 kts | 132° |
| 2026-05-04 19:01 | 39.34068 | -106.93050 | 11860 ft | 218 kts | 140° |
| 2026-05-04 19:01 | 39.32827 | -106.91992 | 11383 ft | 213 kts | 155° |
| 2026-05-04 19:01 | 39.31495 | -106.91237 | 10536 ft | 210 kts | 160° |
| 2026-05-04 19:02 | 39.30162 | -106.90625 | 9797 ft | 202 kts | 161° |
| 2026-05-04 19:02 | 39.28851 | -106.90009 | 8972 ft | 201 kts | 160° |
| 2026-05-04 19:02 | 39.27576 | -106.89391 | 8366 ft | 184 kts | 159° |
| 2026-05-04 19:02 | 39.26486 | -106.88885 | 8148 ft | 152 kts | 158° |
| 2026-05-04 19:03 | 39.25507 | -106.88409 | 7957 ft | 162 kts | 160° |
| 2026-05-04 19:03 | 39.24386 | -106.87880 | 7866 ft | 169 kts | 159° |
| 2026-05-04 19:03 | 39.23295 | -106.87353 | 7740 ft | 158 kts | 159° |
| 2026-05-04 19:03 | 39.22385 | -106.86919 | 7765 ft | 117 kts | 159° |
| 2026-05-04 19:04 | 39.21844 | -106.86661 | 7806 ft | 35 kts | 159° |
| 2026-05-04 19:04 | 39.21689 | -106.86581 | 7818 ft | 9 kts | 129° |
| 2026-05-04 19:04 | 39.21691 | -106.86513 | 7821 ft | 5 kts | 72° |
| 2026-05-04 19:04 | 39.21711 | -106.86479 | 7822 ft | 5 kts | 17° |
| 2026-05-04 19:05 | 39.21770 | -106.86500 | 7819 ft | 12 kts | 339° |
| 2026-05-04 19:05 | 39.21853 | -106.86540 | 7813 ft | 14 kts | 341° |
| 2026-05-04 19:05 | 39.21931 | -106.86578 | 7807 ft | 13 kts | 341° |
| 2026-05-04 19:05 | 39.22025 | -106.86623 | 7800 ft | 14 kts | 341° |
| 2026-05-04 19:06 | 39.22117 | -106.86642 | 7794 ft | 7 kts | 30° |
| 2026-05-04 19:06 | 39.22144 | -106.86594 | 7795 ft | 5 kts | 59° |
| 2026-05-04 19:06 | 39.22193 | -106.86585 | 7793 ft | 7 kts | 333° |
| 2026-05-04 19:06 | 39.22194 | -106.86601 | 7792 ft | 0 kts | 250° |